createdAt,value
2022-12-03T00:00:47.237Z,2.92
2022-12-03T00:03:14.028Z,2.94
2022-12-03T00:05:48.360Z,2.95
2022-12-03T00:08:15.664Z,3.01
2022-12-03T00:10:42.289Z,3.09
2022-12-03T00:13:09.843Z,3.10
2022-12-03T00:15:36.487Z,3.12
2022-12-03T00:18:03.196Z,2.90
2022-12-03T00:20:29.763Z,3.00
2022-12-03T00:22:56.280Z,3.04
2022-12-03T00:25:22.800Z,2.94
2022-12-03T00:27:49.521Z,3.04
2022-12-03T00:30:16.112Z,3.15
2022-12-03T00:32:42.863Z,3.17
2022-12-03T00:35:10.107Z,3.18
2022-12-03T00:37:36.748Z,3.12
2022-12-03T00:40:05.172Z,3.15
2022-12-03T00:42:31.739Z,3.18
2022-12-03T00:44:58.300Z,3.15
2022-12-03T00:47:24.976Z,3.16
2022-12-03T00:49:51.647Z,3.10
2022-12-03T00:52:18.227Z,3.13
2022-12-03T00:54:45.380Z,3.15
2022-12-03T00:57:12.184Z,3.18
2022-12-03T00:59:40.758Z,3.18
2022-12-03T01:02:07.499Z,3.22
2022-12-03T01:04:34.233Z,3.10
2022-12-03T01:07:01.020Z,3.11
2022-12-03T01:09:27.609Z,3.08
2022-12-03T01:11:54.225Z,3.04
2022-12-03T01:14:21.030Z,2.98
2022-12-03T01:16:48.428Z,2.90
2022-12-03T01:19:16.836Z,2.90
2022-12-03T01:21:45.253Z,2.98
2022-12-03T01:24:12.184Z,2.99
2022-12-03T01:26:38.932Z,2.97
2022-12-03T01:29:05.561Z,3.01
2022-12-03T01:31:50.726Z,3.02
2022-12-03T01:34:17.585Z,2.94
2022-12-03T01:36:44.168Z,2.95
2022-12-03T01:39:10.806Z,3.00
2022-12-03T01:41:38.153Z,2.88
2022-12-03T01:44:14.457Z,2.84
2022-12-03T01:46:42.451Z,2.83
2022-12-03T01:49:31.333Z,2.91
2022-12-03T01:51:59.045Z,2.94
2022-12-03T01:54:30.888Z,2.92
2022-12-03T01:56:58.257Z,2.95
2022-12-03T01:59:35.603Z,2.96
2022-12-03T02:02:12.990Z,2.98
2022-12-03T02:04:39.931Z,2.99
2022-12-03T02:07:26.605Z,3.06
2022-12-03T02:09:55.248Z,3.07
2022-12-03T02:12:30.615Z,3.07
2022-12-03T02:14:58.010Z,3.10
2022-12-03T02:17:24.591Z,3.15
2022-12-03T02:19:51.484Z,3.16
2022-12-03T02:22:23.900Z,3.18
2022-12-03T02:24:58.704Z,3.16
2022-12-03T02:27:28.047Z,3.12
2022-12-03T02:29:54.642Z,3.15
2022-12-03T02:32:23.378Z,3.13
2022-12-03T02:34:51.763Z,3.12
2022-12-03T02:37:27.124Z,3.18
2022-12-03T02:39:58.753Z,3.15
2022-12-03T02:42:37.948Z,3.18
2022-12-03T02:45:39.452Z,3.16
2022-12-03T02:48:12.933Z,3.20
2022-12-03T02:50:48.463Z,3.23
2022-12-03T02:53:22.039Z,3.19
2022-12-03T02:55:50.478Z,3.19
2022-12-03T02:58:17.823Z,3.28
2022-12-03T03:00:45.769Z,3.32
2022-12-03T03:03:13.127Z,3.24
2022-12-03T03:05:41.523Z,3.17
2022-12-03T03:08:13.851Z,3.17
2022-12-03T03:10:42.070Z,3.14
2022-12-03T03:13:14.626Z,3.15
2022-12-03T03:15:42.284Z,3.09
2022-12-03T03:18:10.656Z,3.15
2022-12-03T03:20:38.381Z,3.18
2022-12-03T03:23:10.791Z,3.19
2022-12-03T03:25:39.345Z,3.23
2022-12-03T03:28:07.112Z,3.23
2022-12-03T03:30:35.437Z,3.21
2022-12-03T03:33:02.072Z,3.10
2022-12-03T03:35:28.837Z,3.04
2022-12-03T03:37:56.892Z,3.16
2022-12-03T03:40:23.568Z,3.12
2022-12-03T03:42:50.369Z,3.01
2022-12-03T03:45:17.950Z,2.97
2022-12-03T03:47:45.098Z,2.94
2022-12-03T03:50:13.454Z,2.97
2022-12-03T03:52:41.415Z,2.92
2022-12-03T03:55:10.193Z,2.93
2022-12-03T03:57:37.273Z,2.98
2022-12-03T04:00:06.392Z,3.06
2022-12-03T04:02:33.162Z,3.01
2022-12-03T04:05:00.043Z,2.98
2022-12-03T04:07:26.679Z,3.01
2022-12-03T04:09:53.347Z,3.01
2022-12-03T04:12:38.518Z,3.03
2022-12-03T04:15:06.024Z,2.97
2022-12-03T04:17:32.538Z,2.97
2022-12-03T04:19:59.117Z,2.93
2022-12-03T04:22:40.996Z,2.88
2022-12-03T04:25:27.986Z,2.84
2022-12-03T04:28:13.188Z,2.74
2022-12-03T04:30:39.871Z,2.86
2022-12-03T04:33:24.679Z,2.81
2022-12-03T04:35:51.410Z,2.74
2022-12-03T04:38:17.999Z,2.61
2022-12-03T04:41:05.020Z,2.65
2022-12-03T04:43:34.373Z,2.74
2022-12-03T04:46:01.692Z,2.65
2022-12-03T04:48:29.596Z,2.61
2022-12-03T04:50:56.183Z,2.58
2022-12-03T04:53:22.784Z,2.70
2022-12-03T04:55:49.296Z,2.74
2022-12-03T04:58:15.916Z,2.76
2022-12-03T05:00:42.527Z,2.71
2022-12-03T05:03:09.292Z,2.78
2022-12-03T05:05:35.804Z,2.85
2022-12-03T05:08:02.498Z,2.78
2022-12-03T05:10:29.149Z,2.76
2022-12-03T05:12:55.783Z,2.85
2022-12-03T05:15:22.569Z,2.85
2022-12-03T05:17:49.299Z,2.76
2022-12-03T05:20:34.799Z,2.73
2022-12-03T05:23:01.440Z,2.63
2022-12-03T05:25:27.951Z,2.72
2022-12-03T05:27:54.557Z,2.75
2022-12-03T05:30:22.393Z,2.71
2022-12-03T05:32:49.044Z,2.70
2022-12-03T05:35:15.777Z,2.76
2022-12-03T05:37:42.353Z,2.77
2022-12-03T05:40:09.861Z,2.78
2022-12-03T05:42:54.452Z,2.76
2022-12-03T05:45:29.358Z,2.73
2022-12-03T05:47:57.504Z,2.69
2022-12-03T05:50:26.324Z,2.76
2022-12-03T05:52:55.401Z,2.67
2022-12-03T05:55:22.375Z,2.66
2022-12-03T05:57:49.045Z,2.75
2022-12-03T06:00:18.903Z,2.70
2022-12-03T06:02:45.913Z,2.69
2022-12-03T06:05:14.540Z,2.75
2022-12-03T06:07:41.856Z,2.76
2022-12-03T06:10:11.551Z,2.73
2022-12-03T06:12:38.363Z,2.53
2022-12-03T06:15:05.992Z,2.62
2022-12-03T06:17:32.837Z,2.69
2022-12-03T06:20:08.140Z,2.73
2022-12-03T06:22:34.809Z,2.71
2022-12-03T06:25:06.611Z,2.74
2022-12-03T06:27:33.956Z,2.66
2022-12-03T06:30:00.509Z,2.74
2022-12-03T06:32:27.140Z,2.71
2022-12-03T06:34:53.914Z,2.76
2022-12-03T06:37:20.743Z,2.78
2022-12-03T06:39:47.447Z,2.72
2022-12-03T06:42:14.090Z,2.80
2022-12-03T06:44:41.218Z,2.86
2022-12-03T06:47:07.884Z,2.75
2022-12-03T06:49:34.765Z,2.79
2022-12-03T06:52:01.509Z,2.78
2022-12-03T06:54:28.099Z,2.93
2022-12-03T06:56:54.691Z,2.97
2022-12-03T06:59:21.210Z,3.01
2022-12-03T07:01:47.934Z,2.85
2022-12-03T07:04:14.502Z,2.94
2022-12-03T07:06:41.157Z,3.00
2022-12-03T07:09:07.775Z,3.06
2022-12-03T07:11:40.383Z,3.07
2022-12-03T07:14:09.145Z,3.07
2022-12-03T07:16:36.369Z,3.00
2022-12-03T07:19:04.412Z,3.03
2022-12-03T07:21:30.963Z,3.09
2022-12-03T07:23:57.805Z,3.09
2022-12-03T07:26:24.344Z,3.09
2022-12-03T07:28:51.193Z,3.10
2022-12-03T07:31:17.822Z,3.10
2022-12-03T07:33:44.436Z,3.08
2022-12-03T07:36:11.091Z,3.12
2022-12-03T07:38:37.717Z,3.20
2022-12-03T07:41:04.321Z,3.14
2022-12-03T07:43:30.879Z,3.13
2022-12-03T07:45:57.412Z,3.06
2022-12-03T07:48:24.098Z,3.12
2022-12-03T07:50:50.959Z,3.12
2022-12-03T07:53:17.675Z,3.13
2022-12-03T07:55:44.271Z,3.10
2022-12-03T07:58:12.107Z,3.10
2022-12-03T08:00:38.892Z,3.20
2022-12-03T08:03:05.495Z,3.19
2022-12-03T08:05:32.119Z,3.20
2022-12-03T08:07:58.713Z,3.34
2022-12-03T08:10:25.637Z,3.30
2022-12-03T08:12:53.650Z,3.26
2022-12-03T08:15:26.558Z,3.24
2022-12-03T08:17:58.835Z,3.26
2022-12-03T08:20:33.321Z,3.28
2022-12-03T08:23:06.921Z,3.23
2022-12-03T08:25:33.740Z,3.26
2022-12-03T08:28:13.220Z,3.33
2022-12-03T08:30:41.588Z,3.23
2022-12-03T08:33:28.038Z,3.25
2022-12-03T08:35:54.858Z,3.37
2022-12-03T08:38:23.779Z,3.42
2022-12-03T08:40:52.493Z,3.41
2022-12-03T08:43:27.984Z,3.16
2022-12-03T08:45:56.108Z,3.08
2022-12-03T08:48:33.914Z,3.11
2022-12-03T08:51:03.922Z,3.09
2022-12-03T08:53:46.440Z,3.11
2022-12-03T08:56:22.112Z,3.10
2022-12-03T08:58:53.014Z,3.08
2022-12-03T09:01:41.595Z,2.96
2022-12-03T09:04:26.979Z,3.00
2022-12-03T09:06:54.551Z,3.02
2022-12-03T09:09:22.876Z,3.01
2022-12-03T09:11:50.153Z,2.95
2022-12-03T09:14:18.935Z,2.98
2022-12-03T09:16:45.944Z,2.94
2022-12-03T09:19:12.575Z,2.96
2022-12-03T09:21:39.157Z,3.06
2022-12-03T09:24:05.891Z,2.97
2022-12-03T09:26:32.509Z,2.89
2022-12-03T09:28:59.033Z,2.84
2022-12-03T09:31:25.728Z,3.05
2022-12-03T09:33:52.314Z,3.01
2022-12-03T09:36:18.894Z,3.10
2022-12-03T09:38:47.907Z,3.18
2022-12-03T09:41:15.450Z,3.25
2022-12-03T09:46:30.129Z,3.42
2022-12-03T09:48:57.095Z,3.44
2022-12-03T09:51:30.424Z,3.46
2022-12-03T09:53:59.707Z,3.43
2022-12-03T09:56:26.273Z,3.37
2022-12-03T09:58:52.843Z,3.41
2022-12-03T10:01:21.204Z,3.47
2022-12-03T10:03:52.543Z,3.50
2022-12-03T10:06:23.442Z,3.41
2022-12-03T10:08:54.727Z,3.34
2022-12-03T10:11:25.331Z,3.22
2022-12-03T10:13:54.520Z,3.25
2022-12-03T10:16:21.521Z,3.33
2022-12-03T10:18:52.106Z,3.38
2022-12-03T10:21:38.502Z,3.27
2022-12-03T10:24:22.702Z,3.13
2022-12-03T10:26:51.241Z,3.01
2022-12-03T10:29:20.624Z,3.02
2022-12-03T10:31:57.356Z,3.10
2022-12-03T10:34:32.743Z,3.21
2022-12-03T10:37:13.224Z,3.18
2022-12-03T10:39:56.257Z,3.24
2022-12-03T10:42:24.492Z,3.24
2022-12-03T10:45:12.567Z,3.23
2022-12-03T10:47:39.450Z,3.28
2022-12-03T10:50:15.074Z,3.16
2022-12-03T10:52:41.964Z,3.15
2022-12-03T10:55:13.098Z,3.20
2022-12-03T10:57:45.279Z,3.21
2022-12-03T11:00:17.646Z,3.19
2022-12-03T11:02:45.165Z,3.24
2022-12-03T11:05:21.579Z,3.30
2022-12-03T11:07:48.696Z,3.40
2022-12-03T11:10:17.889Z,3.46
2022-12-03T11:13:23.143Z,3.38
2022-12-03T11:15:49.750Z,3.27
2022-12-03T11:18:37.856Z,3.38
2022-12-03T11:21:13.051Z,3.49
2022-12-03T11:23:45.298Z,3.53
2022-12-03T11:26:38.118Z,3.48
2022-12-03T11:29:13.970Z,3.51
2022-12-03T11:31:42.203Z,3.50
2022-12-03T11:34:17.860Z,3.49
2022-12-03T11:37:09.481Z,3.46
2022-12-03T11:39:48.240Z,3.45
2022-12-03T11:42:26.810Z,3.40
2022-12-03T11:45:02.782Z,3.35
2022-12-03T11:47:35.285Z,3.37
2022-12-03T11:50:02.959Z,3.25
2022-12-03T11:52:41.625Z,3.19
2022-12-03T11:55:23.103Z,3.13
2022-12-03T11:57:57.906Z,3.12
2022-12-03T12:00:24.753Z,3.19
2022-12-03T12:02:53.874Z,3.20
2022-12-03T12:05:32.775Z,3.21
2022-12-03T12:08:01.358Z,3.20
2022-12-03T12:10:39.071Z,3.25
2022-12-03T12:13:06.328Z,3.23
2022-12-03T12:15:34.274Z,3.19
2022-12-03T12:18:38.372Z,3.16
2022-12-03T12:21:42.428Z,3.17
2022-12-03T12:24:40.262Z,3.09
2022-12-03T12:27:09.467Z,3.26
2022-12-03T12:29:37.735Z,3.30
2022-12-03T12:32:13.579Z,3.20
2022-12-03T12:34:45.325Z,3.27
2022-12-03T12:37:21.437Z,3.25
2022-12-03T12:39:48.880Z,3.17
2022-12-03T12:42:39.424Z,3.21
2022-12-03T12:45:14.609Z,3.19
2022-12-03T12:47:56.471Z,3.11
2022-12-03T12:50:23.195Z,3.10
2022-12-03T12:53:01.678Z,2.91
2022-12-03T12:55:28.367Z,2.95
2022-12-03T12:57:59.877Z,3.04
2022-12-03T13:00:26.625Z,3.07
2022-12-03T13:03:00.269Z,3.04
2022-12-03T13:05:38.039Z,3.02
2022-12-03T13:08:28.388Z,3.10
2022-12-03T13:11:00.243Z,3.29
2022-12-03T13:13:41.654Z,3.25
2022-12-03T13:16:31.000Z,3.24
2022-12-03T13:18:59.168Z,3.30
2022-12-03T13:21:34.799Z,3.34
2022-12-03T13:24:01.641Z,3.28
2022-12-03T13:26:39.747Z,3.23
2022-12-03T13:29:13.718Z,3.15
2022-12-03T13:31:44.211Z,3.15
2022-12-03T13:34:21.423Z,3.17
2022-12-03T13:36:55.298Z,3.15
2022-12-03T13:39:30.187Z,3.09
2022-12-03T13:42:20.346Z,2.96
2022-12-03T13:44:49.229Z,3.16
2022-12-03T13:47:19.829Z,3.11
2022-12-03T13:49:52.047Z,3.24
2022-12-03T13:52:21.696Z,3.27
2022-12-03T13:54:53.957Z,3.26
2022-12-03T13:57:22.415Z,3.27
2022-12-03T14:00:05.601Z,3.10
2022-12-03T14:02:39.111Z,2.95
2022-12-03T14:05:05.998Z,2.89
2022-12-03T14:07:32.549Z,2.78
2022-12-03T14:09:59.177Z,2.93
2022-12-03T14:12:25.694Z,2.94
2022-12-03T14:14:53.411Z,2.96
2022-12-03T14:17:20.396Z,3.01
2022-12-03T14:19:46.996Z,3.00
2022-12-03T14:22:13.665Z,2.88
2022-12-03T14:24:40.398Z,2.85
2022-12-03T14:27:06.959Z,2.83
2022-12-03T14:29:33.615Z,2.90
2022-12-03T14:32:00.316Z,2.94
2022-12-03T14:34:27.095Z,2.92
2022-12-03T14:36:53.983Z,3.01
2022-12-03T14:39:20.978Z,3.01
2022-12-03T14:42:06.068Z,3.07
2022-12-03T14:44:32.680Z,3.19
2022-12-03T14:46:59.234Z,3.05
2022-12-03T14:49:25.939Z,3.05
2022-12-03T14:51:53.019Z,3.06
2022-12-03T14:54:19.622Z,3.05
2022-12-03T14:56:46.168Z,2.96
2022-12-03T14:59:12.739Z,3.01
2022-12-03T15:01:39.383Z,2.92
2022-12-03T15:04:06.114Z,2.98
2022-12-03T15:06:33.563Z,3.05
2022-12-03T15:09:00.197Z,3.04
2022-12-03T15:11:26.794Z,3.03
2022-12-03T15:13:53.401Z,3.12
2022-12-03T15:16:20.078Z,3.15
2022-12-03T15:18:46.776Z,3.19
2022-12-03T15:21:13.404Z,3.22
2022-12-03T15:23:40.095Z,3.22
2022-12-03T15:26:06.697Z,3.27
2022-12-03T15:28:33.422Z,3.35
2022-12-03T15:31:00.153Z,3.42
2022-12-03T15:33:26.911Z,3.43
2022-12-03T15:35:53.515Z,3.39
2022-12-03T15:38:20.310Z,3.42
2022-12-03T15:40:46.865Z,3.28
2022-12-03T15:43:13.594Z,3.20
2022-12-03T15:45:40.399Z,3.16
2022-12-03T15:48:07.191Z,3.10
2022-12-03T15:50:39.714Z,3.07
2022-12-03T15:53:06.956Z,3.02
2022-12-03T15:55:33.525Z,2.97
2022-12-03T15:58:00.381Z,2.88
2022-12-03T16:00:26.925Z,2.92
2022-12-03T16:02:53.627Z,2.92
2022-12-03T16:05:20.442Z,2.91
2022-12-03T16:07:47.099Z,2.95
2022-12-03T16:10:13.718Z,2.96
2022-12-03T16:12:40.370Z,2.92
2022-12-03T16:15:07.150Z,2.98
2022-12-03T16:17:33.853Z,3.04
2022-12-03T16:20:00.445Z,2.96
2022-12-03T16:22:27.079Z,2.99
2022-12-03T16:24:53.616Z,2.99
2022-12-03T16:27:25.338Z,2.95
2022-12-03T16:29:52.707Z,3.02
2022-12-03T16:32:19.580Z,3.01
2022-12-03T16:34:46.135Z,3.08
2022-12-03T16:37:12.692Z,3.06
2022-12-03T16:39:47.019Z,3.10
2022-12-03T16:42:17.240Z,3.12
2022-12-03T16:45:03.128Z,3.03
2022-12-03T16:47:33.915Z,3.03
2022-12-03T16:50:02.164Z,3.10
2022-12-03T16:52:29.041Z,3.13
2022-12-03T16:54:55.735Z,3.16
2022-12-03T16:57:22.264Z,3.15
2022-12-03T16:59:48.912Z,3.19
2022-12-03T17:02:15.545Z,3.19
2022-12-03T17:04:43.152Z,3.08
2022-12-03T17:07:09.838Z,3.19
2022-12-03T17:09:36.510Z,3.15
2022-12-03T17:12:03.099Z,3.17
2022-12-03T17:14:33.212Z,3.11
2022-12-03T17:17:00.308Z,3.14
2022-12-03T17:19:27.112Z,3.23
2022-12-03T17:21:54.773Z,3.24
2022-12-03T17:24:21.599Z,3.21
2022-12-03T17:26:48.390Z,3.20
2022-12-03T17:29:15.013Z,3.19
2022-12-03T17:31:42.437Z,3.19
2022-12-03T17:34:09.875Z,3.27
2022-12-03T17:36:36.582Z,3.29
2022-12-03T17:39:03.234Z,3.26
2022-12-03T17:41:29.996Z,3.25
2022-12-03T17:43:56.854Z,3.29
2022-12-03T17:46:23.857Z,3.16
2022-12-03T17:48:51.071Z,3.21
2022-12-03T17:51:21.914Z,3.19
2022-12-03T17:53:48.664Z,3.16
2022-12-03T17:56:15.543Z,3.31
2022-12-03T17:58:44.723Z,3.24
2022-12-03T18:01:11.540Z,3.13
2022-12-03T18:03:38.392Z,3.15
2022-12-03T18:06:05.149Z,3.10
2022-12-03T18:08:31.684Z,3.03
2022-12-03T18:10:58.298Z,2.97
2022-12-03T18:13:25.021Z,3.00
2022-12-03T18:15:54.632Z,3.00
2022-12-03T18:18:21.384Z,3.03
2022-12-03T18:20:48.077Z,3.02
2022-12-03T18:23:14.863Z,3.12
2022-12-03T18:25:42.102Z,3.09
2022-12-03T18:28:08.647Z,3.11
2022-12-03T18:30:35.477Z,3.20
2022-12-03T18:33:02.059Z,3.22
2022-12-03T18:35:29.896Z,3.23
2022-12-03T18:37:56.560Z,3.17
2022-12-03T18:40:24.824Z,3.14
2022-12-03T18:42:52.736Z,3.16
2022-12-03T18:45:19.412Z,3.17
2022-12-03T18:47:46.296Z,2.98
2022-12-03T18:50:13.583Z,2.89
2022-12-03T18:52:40.874Z,2.88
2022-12-03T18:55:08.450Z,2.91
2022-12-03T18:57:35.230Z,2.86
2022-12-03T19:00:11.828Z,2.76
2022-12-03T19:03:02.910Z,2.80
2022-12-03T19:05:26.662Z,2.88
2022-12-03T19:07:55.110Z,2.83
2022-12-03T19:10:22.192Z,2.92
2022-12-03T19:12:50.182Z,2.98
2022-12-03T19:15:17.229Z,2.93
2022-12-03T19:17:50.466Z,2.88
2022-12-03T19:20:17.294Z,2.85
2022-12-03T19:22:43.981Z,2.82
2022-12-03T19:25:10.678Z,2.87
2022-12-03T19:27:37.256Z,2.83
2022-12-03T19:30:04.511Z,2.86
2022-12-03T19:32:31.079Z,2.91
2022-12-03T19:34:57.895Z,2.89
2022-12-03T19:37:24.519Z,2.87
2022-12-03T19:39:54.551Z,2.86
2022-12-03T19:42:21.466Z,2.84
2022-12-03T19:44:48.024Z,2.74
2022-12-03T19:47:14.865Z,2.78
2022-12-03T19:49:41.414Z,2.77
2022-12-03T19:52:08.267Z,2.80
2022-12-03T19:54:39.449Z,2.96
2022-12-03T19:57:06.113Z,2.87
2022-12-03T19:59:32.698Z,2.84
2022-12-03T20:01:59.638Z,2.86
2022-12-03T20:04:28.822Z,2.77
2022-12-03T20:07:05.055Z,2.81
2022-12-03T20:09:32.229Z,2.85
2022-12-03T20:11:58.997Z,2.87
2022-12-03T20:14:25.814Z,2.95
2022-12-03T20:16:52.561Z,2.94
2022-12-03T20:19:19.353Z,2.89
2022-12-03T20:21:46.021Z,2.87
2022-12-03T20:24:16.078Z,2.88
2022-12-03T20:26:43.343Z,2.79
2022-12-03T20:29:10.056Z,2.77
2022-12-03T20:31:36.959Z,2.80
2022-12-03T20:34:32.398Z,2.85
2022-12-03T20:36:59.172Z,2.79
2022-12-03T20:42:34.783Z,2.72
2022-12-03T20:45:14.992Z,2.78
2022-12-03T20:47:44.249Z,2.76
2022-12-03T20:53:23.128Z,2.74
2022-12-03T20:55:55.313Z,2.85
2022-12-03T20:58:21.989Z,2.82
2022-12-03T21:00:48.589Z,2.88
2022-12-03T21:03:15.181Z,2.91
2022-12-03T21:05:43.785Z,2.89
2022-12-03T21:08:11.089Z,2.94
2022-12-03T21:10:45.043Z,3.00
2022-12-03T21:13:13.338Z,2.98
2022-12-03T21:15:40.097Z,2.91
2022-12-03T21:18:06.878Z,2.90
2022-12-03T21:20:33.528Z,2.91
2022-12-03T21:23:00.166Z,2.92
2022-12-03T21:25:26.796Z,2.95
2022-12-03T21:27:55.091Z,2.92
2022-12-03T21:30:21.704Z,2.90
2022-12-03T21:32:48.276Z,2.90
2022-12-03T21:35:15.001Z,2.91
2022-12-03T21:37:41.673Z,2.86
2022-12-03T21:40:08.708Z,2.82
2022-12-03T21:42:37.232Z,2.84
2022-12-03T21:45:05.228Z,2.82
2022-12-03T21:47:37.009Z,2.80
2022-12-03T21:50:06.118Z,2.82
2022-12-03T21:52:34.191Z,2.81
2022-12-03T21:55:01.056Z,2.77
2022-12-03T21:57:27.754Z,2.76
2022-12-03T21:59:55.780Z,2.80
2022-12-03T22:02:22.791Z,2.81
2022-12-03T22:04:51.467Z,2.83
2022-12-03T22:07:18.097Z,2.83
2022-12-03T22:09:44.727Z,2.80
2022-12-03T22:12:11.268Z,2.79
2022-12-03T22:14:37.947Z,2.76
2022-12-03T22:17:04.695Z,2.77
2022-12-03T22:19:31.432Z,2.77
2022-12-03T22:21:58.151Z,2.72
2022-12-03T22:24:24.838Z,2.72
2022-12-03T22:26:53.422Z,2.71
2022-12-03T22:29:20.125Z,2.67
2022-12-03T22:31:46.707Z,2.68
2022-12-03T22:34:13.339Z,2.73
2022-12-03T22:36:40.009Z,2.77
2022-12-03T22:39:06.737Z,2.74
2022-12-03T22:41:33.347Z,2.71
2022-12-03T22:44:00.004Z,2.75
2022-12-03T22:46:26.620Z,2.73
2022-12-03T22:48:53.372Z,2.77
2022-12-03T22:51:22.481Z,2.73
2022-12-03T22:53:56.699Z,2.72
2022-12-03T22:56:24.072Z,2.75
2022-12-03T22:58:50.786Z,2.75
2022-12-03T23:01:26.861Z,2.68
2022-12-03T23:03:54.395Z,2.72
2022-12-03T23:06:22.473Z,2.76
2022-12-03T23:08:49.425Z,2.80
2022-12-03T23:11:16.933Z,2.71
2022-12-03T23:13:43.589Z,2.73
2022-12-03T23:16:18.429Z,2.79
2022-12-03T23:18:45.238Z,2.85
2022-12-03T23:21:17.430Z,2.80
2022-12-03T23:23:43.996Z,2.74
2022-12-03T23:26:12.239Z,2.67
2022-12-03T23:28:41.039Z,2.63
2022-12-03T23:31:16.696Z,2.65
2022-12-03T23:33:43.351Z,2.71
2022-12-03T23:36:10.576Z,2.67
2022-12-03T23:38:37.432Z,2.59
2022-12-03T23:41:11.144Z,2.63
2022-12-03T23:43:38.610Z,2.70
2022-12-03T23:46:11.223Z,2.68
2022-12-03T23:48:38.002Z,2.68
2022-12-03T23:51:06.369Z,2.61
2022-12-03T23:53:33.033Z,2.57
2022-12-03T23:55:59.603Z,2.60
2022-12-03T23:58:26.199Z,2.62
